Terminal Aerodrome Forecast
Issued by NWS Brownsville, TX

Home | Current Version | Previous Version | Text Only | Print | Product List | Glossary On
Versions: 1 2 3 4 5 6 7 8 9 10 11 12 13 14 15 16 17 18 19 20 21 22 23 24 25 26 27
000
FTUS44 KBRO 160000 AAA
TAFHRL
TAF AMD
KHRL 160048Z 1601/1624 08009KT P6SM VCSH BKN021 BKN029 OVC080
      TEMPO 1601/1603 5SM SHRA BKN015
     FM160300 00000KT P6SM VCSH SCT030 OVC050
      TEMPO 1603/1606 4SM -TSRA BKN030CB BKN050
     FM160600 26002KT P6SM SCT040 OVC250
     FM161800 17010KT P6SM BKN025 PROB30 1618/1621 5SM -TSRA
      BKN025CB
     FM162100 18010KT P6SM SCT030 BKN150 PROB30 1621/1624 5SM -TSRA
      BKN030CB=

USA.gov is the U.S. government's official web portal to all federal, state and local government web resources and services.